Station Historical Data
Daily Summary for April 24, 2017 Units:  English    Metric   Both
Next Day »
Daily Weekly Monthly Yearly Custom
  High: Low: Average:
Temperature: 50.5 °F 44.4 °F 47.7 °F
Dew Point: 46.6 °F 41.4 °F 44.2 °F
Humidity: 90% 83% 87%
Wind Speed: 13.0mph 0.0mph 2.9mph
Wind Gust: 19.0mph - -
Wind- - South
Pressure: 30.07 in 29.96 in -
Precipitation: 0.00 in    
Historical Graphs
 
 
Tabular Data for April 24, 2017
Time Temperature Dew Point Pressure Wind Wind Speed Wind Gust Humidity Rainfall Rate (Hourly) solar Conditions
00:01 49.3 °F 44.7 °F 29.97 in Calm   1.0 mph 84% 0.00 in 0.00 W/m2
00:06 49.3 °F 44.7 °F 29.96 in Calm     84% 0.00 in 0.00 W/m2
00:11 49.2 °F 44.6 °F 29.97 in Calm     84% 0.00 in 0.00 W/m2
00:16 49.2 °F 44.6 °F 29.97 in Calm   4.0 mph 84% 0.00 in 0.00 W/m2
00:21 49.1 °F 44.5 °F 29.97 in Calm     84% 0.00 in 0.00 W/m2
00:26 49.0 °F 44.4 °F 29.97 in Calm   1.0 mph 84% 0.00 in 0.00 W/m2
00:31 49.0 °F 44.4 °F 29.97 in Calm   5.0 mph 84% 0.00 in 0.00 W/m2
00:41 48.9 °F 44.3 °F 29.97 in Calm   2.0 mph 84% 0.00 in 0.00 W/m2
00:46 48.9 °F 44.3 °F 29.97 in SE 5.0 mph 8.0 mph 84% 0.00 in 0.00 W/m2
00:51 48.9 °F 44.6 °F 29.97 in SE 6.0 mph 8.0 mph 85% 0.00 in 0.00 W/m2
00:57 48.9 °F 44.3 °F 29.97 in SE 4.0 mph 8.0 mph 84% 0.00 in 0.00 W/m2
01:02 48.9 °F 44.3 °F 29.97 in SE 2.0 mph 2.0 mph 84% 0.00 in 0.00 W/m2
01:07 48.9 °F 44.3 °F 29.97 in Calm   8.0 mph 84% 0.00 in 0.00 W/m2
01:12 48.9 °F 44.3 °F 29.97 in Calm   8.0 mph 84% 0.00 in 0.00 W/m2
01:17 49.0 °F 44.4 °F 29.97 in Calm   6.0 mph 84% 0.00 in 0.00 W/m2
01:22 49.0 °F 44.4 °F 29.97 in Calm     84% 0.00 in 0.00 W/m2
01:27 49.0 °F 44.4 °F 29.97 in SE 6.0 mph 7.0 mph 84% 0.00 in 0.00 W/m2
01:32 49.0 °F 44.4 °F 29.97 in SSE 4.0 mph 7.0 mph 84% 0.00 in 0.00 W/m2
01:37 49.0 °F 44.1 °F 29.96 in Calm   2.0 mph 83% 0.00 in 0.00 W/m2
01:42 49.0 °F 44.1 °F 29.96 in Calm   2.0 mph 83% 0.00 in 0.00 W/m2
01:47 49.0 °F 44.1 °F 29.97 in Calm     83% 0.00 in 0.00 W/m2
01:52 49.0 °F 44.4 °F 29.97 in Calm     84% 0.00 in 0.00 W/m2
01:57 49.0 °F 44.4 °F 29.97 in Calm   8.0 mph 84% 0.00 in 0.00 W/m2
02:02 49.0 °F 44.4 °F 29.97 in South 5.0 mph 7.0 mph 84% 0.00 in 0.00 W/m2
02:04 49.0 °F 44.4 °F 29.97 in South 2.0 mph 7.0 mph 84% 0.00 in 0.00 W/m2
02:09 48.9 °F 44.3 °F 29.97 in Calm   8.0 mph 84% 0.00 in 0.00 W/m2
02:10 48.9 °F 44.3 °F 29.97 in Calm   8.0 mph 84% 0.00 in 0.00 W/m2
02:15 48.8 °F 44.2 °F 29.97 in Calm   10.0 mph 84% 0.00 in 0.00 W/m2
02:20 48.6 °F 44.0 °F 29.97 in SSE 7.0 mph 12.0 mph 84% 0.00 in 0.00 W/m2
02:25 48.4 °F 43.8 °F 29.97 in Calm   11.0 mph 84% 0.00 in 0.00 W/m2
02:30 48.3 °F 44.0 °F 29.97 in South 4.0 mph 14.0 mph 85% 0.00 in 0.00 W/m2
02:35 48.1 °F 43.8 °F 29.98 in South 1.0 mph 17.0 mph 85% 0.00 in 0.00 W/m2
02:40 48.0 °F 44.0 °F 29.97 in SSE 6.0 mph 6.0 mph 86% 0.00 in 0.00 W/m2
02:45 47.8 °F 43.8 °F 29.97 in Calm   4.0 mph 86% 0.00 in 0.00 W/m2
02:50 47.6 °F 43.9 °F 29.97 in Calm   10.0 mph 87% 0.04 in 0.00 W/m2
02:55 47.4 °F 43.7 °F 29.97 in SE 4.0 mph 6.0 mph 87% 0.04 in 0.00 W/m2
03:00 47.3 °F 43.6 °F 29.97 in SSE 2.0 mph 10.0 mph 87% 0.04 in 0.00 W/m2
03:05 47.1 °F 43.7 °F 29.96 in Calm     88% 0.04 in 0.00 W/m2
03:06 47.1 °F 43.7 °F 29.97 in Calm     88% 0.00 in 0.00 W/m2
03:11 47.0 °F 43.6 °F 29.96 in Calm     88% 0.00 in 0.00 W/m2
03:16 46.9 °F 43.5 °F 29.97 in Calm     88% 0.00 in 0.00 W/m2
03:21 46.8 °F 43.4 °F 29.97 in Calm   2.0 mph 88% 0.00 in 0.00 W/m2
03:26 46.7 °F 43.3 °F 29.97 in Calm     88% 0.05 in 0.00 W/m2
03:31 46.7 °F 43.3 °F 29.97 in Calm     88% 0.05 in 0.00 W/m2
03:36 46.6 °F 43.5 °F 29.97 in Calm     89% 0.05 in 0.00 W/m2
03:41 46.6 °F 43.5 °F 29.97 in Calm     89% 0.05 in 0.00 W/m2
03:46 46.6 °F 43.5 °F 29.97 in Calm     89% 0.07 in 0.00 W/m2
03:52 46.5 °F 43.4 °F 29.97 in Calm     89% 0.07 in 0.00 W/m2
03:57 46.5 °F 43.4 °F 29.97 in SSE 4.0 mph 4.0 mph 89% 0.06 in 0.00 W/m2
04:02 46.5 °F 43.4 °F 29.97 in Calm     89% 0.06 in 0.00 W/m2
04:07 46.5 °F 43.4 °F 29.97 in SSE 2.0 mph 2.0 mph 89% 0.08 in 0.00 W/m2
04:12 46.5 °F 43.4 °F 29.97 in Calm     89% 0.07 in 0.00 W/m2
04:17 46.5 °F 43.4 °F 29.98 in SSE 4.0 mph 4.0 mph 89% 0.05 in 0.00 W/m2
04:22 46.5 °F 43.4 °F 29.97 in SSE 4.0 mph 5.0 mph 89% 0.05 in 0.00 W/m2
04:27 46.4 °F 43.3 °F 29.98 in Calm   6.0 mph 89% 0.05 in 0.00 W/m2
04:32 46.4 °F 43.3 °F 29.97 in SSE 2.0 mph 6.0 mph 89% 0.04 in 0.00 W/m2
04:37 46.4 °F 43.3 °F 29.98 in Calm     89% 0.00 in 0.00 W/m2
04:42 46.4 °F 43.3 °F 29.98 in Calm   7.0 mph 89% 0.00 in 0.00 W/m2
04:47 46.4 °F 43.3 °F 29.98 in Calm   9.0 mph 89% 0.00 in 0.00 W/m2
04:52 46.3 °F 43.2 °F 29.98 in Calm     89% 0.04 in 0.00 W/m2
04:57 46.3 °F 43.2 °F 29.98 in Calm   8.0 mph 89% 0.04 in 0.00 W/m2
05:07 46.2 °F 43.1 °F 29.98 in Calm     89% 0.04 in 0.00 W/m2
05:12 46.1 °F 43.0 °F 29.98 in SE 4.0 mph 8.0 mph 89% 0.04 in 0.00 W/m2
05:22 46.1 °F 43.0 °F 29.98 in Calm   7.0 mph 89% 0.04 in 0.00 W/m2
05:27 46.0 °F 43.0 °F 29.98 in Calm   10.0 mph 89% 0.04 in 0.00 W/m2
05:32 46.0 °F 43.0 °F 29.98 in Calm   6.0 mph 89% 0.08 in 0.00 W/m2
05:37 45.9 °F 42.8 °F 29.98 in Calm   6.0 mph 89% 0.06 in 0.00 W/m2
05:42 45.9 °F 42.8 °F 29.98 in SE 2.0 mph 9.0 mph 89% 0.04 in 0.00 W/m2
05:47 45.9 °F 42.8 °F 29.98 in SE 5.0 mph 7.0 mph 89% 0.04 in 0.00 W/m2
05:52 45.8 °F 42.8 °F 29.98 in SE 5.0 mph 8.0 mph 89% 0.04 in 0.00 W/m2
05:57 45.7 °F 42.7 °F 29.98 in Calm   8.0 mph 89% 0.05 in 0.00 W/m2
06:02 45.6 °F 42.5 °F 29.97 in Calm   9.0 mph 89% 0.05 in 0.00 W/m2
06:07 45.5 °F 42.5 °F 29.97 in Calm     89% 0.05 in 0.00 W/m2
06:12 45.5 °F 42.5 °F 29.97 in Calm     89% 0.00 in 0.00 W/m2
06:17 45.4 °F 42.3 °F 29.98 in Calm   6.0 mph 89% 0.00 in 0.00 W/m2
06:22 45.4 °F 42.3 °F 29.98 in SE 2.0 mph 7.0 mph 89% 0.00 in 0.00 W/m2
06:27 45.3 °F 42.3 °F 29.98 in SE 10.0 mph 10.0 mph 89% 0.00 in 5.00 W/m2
06:32 45.3 °F 42.3 °F 29.98 in Calm   5.0 mph 89% 0.00 in 7.00 W/m2
06:38 45.3 °F 42.3 °F 29.98 in Calm   7.0 mph 89% 0.00 in 11.00 W/m2
06:43 45.3 °F 42.3 °F 29.98 in Calm   5.0 mph 89% 0.00 in 11.00 W/m2
06:48 45.2 °F 42.2 °F 29.98 in Calm   7.0 mph 89% 0.00 in 11.00 W/m2
06:53 45.3 °F 42.3 °F 29.99 in Calm     89% 0.00 in 14.00 W/m2
06:58 45.2 °F 42.2 °F 29.99 in Calm     89% 0.00 in 18.00 W/m2
07:03 45.2 °F 42.2 °F 30.00 in Calm     89% 0.00 in 9.00 W/m2
07:08 45.2 °F 42.2 °F 30.00 in Calm   6.0 mph 89% 0.00 in 12.00 W/m2
07:13 45.2 °F 42.2 °F 30.01 in Calm     89% 0.00 in 12.00 W/m2
07:18 45.2 °F 42.2 °F 30.01 in South 1.0 mph 11.0 mph 89% 0.00 in 14.00 W/m2
07:23 45.1 °F 42.1 °F 30.00 in Calm   8.0 mph 89% 0.00 in 21.00 W/m2
07:28 45.1 °F 42.1 °F 30.00 in Calm   10.0 mph 89% 0.00 in 19.00 W/m2
07:33 44.9 °F 41.9 °F 30.00 in Calm   12.0 mph 89% 0.00 in 30.00 W/m2
07:38 44.8 °F 41.8 °F 30.00 in SSE 6.0 mph 10.0 mph 89% 0.00 in 30.00 W/m2
07:43 44.7 °F 41.7 °F 30.01 in South 8.0 mph 11.0 mph 89% 0.00 in 35.00 W/m2
07:48 44.6 °F 41.8 °F 30.00 in Calm     90% 0.00 in 47.00 W/m2
07:53 44.5 °F 41.5 °F 30.01 in SSE 11.0 mph 11.0 mph 89% 0.00 in 47.00 W/m2
07:58 44.5 °F 41.5 °F 30.01 in South 2.0 mph 13.0 mph 89% 0.00 in 51.00 W/m2
08:03 44.5 °F 41.5 °F 30.01 in SSE 11.0 mph 13.0 mph 89% 0.00 in 58.00 W/m2
08:08 44.4 °F 41.4 °F 30.02 in SSE 5.0 mph 15.0 mph 89% 0.00 in 47.00 W/m2
08:13 44.4 °F 41.4 °F 30.01 in Calm   8.0 mph 89% 0.00 in 63.00 W/m2
08:18 44.4 °F 41.4 °F 30.01 in SSW 9.0 mph 11.0 mph 89% 0.00 in 56.00 W/m2
08:24 44.4 °F 41.4 °F 30.01 in SSE 7.0 mph 12.0 mph 89% 0.00 in 67.00 W/m2
08:29 44.4 °F 41.4 °F 30.02 in South 5.0 mph 8.0 mph 89% 0.00 in 53.00 W/m2
08:34 44.4 °F 41.4 °F 30.02 in Calm   6.0 mph 89% 0.00 in 62.00 W/m2
08:39 44.4 °F 41.4 °F 30.02 in Calm     89% 0.00 in 53.00 W/m2
08:44 44.4 °F 41.4 °F 30.02 in Calm   13.0 mph 89% 0.00 in 74.00 W/m2
08:49 44.4 °F 41.4 °F 30.02 in SSE 4.0 mph 7.0 mph 89% 0.00 in 90.00 W/m2
08:54 44.4 °F 41.4 °F 30.02 in SSW 4.0 mph 9.0 mph 89% 0.00 in 151.00 W/m2
08:59 44.5 °F 41.5 °F 30.03 in Calm   10.0 mph 89% 0.00 in 148.00 W/m2
09:04 44.5 °F 41.5 °F 30.03 in South 7.0 mph 11.0 mph 89% 0.00 in 137.00 W/m2
09:09 44.5 °F 41.5 °F 30.03 in Calm   6.0 mph 89% 0.00 in 165.00 W/m2
09:14 44.6 °F 41.6 °F 30.04 in Calm   13.0 mph 89% 0.00 in 216.00 W/m2
09:19 44.7 °F 41.7 °F 30.04 in Calm   10.0 mph 89% 0.00 in 172.00 W/m2
09:24 44.7 °F 41.7 °F 30.04 in South 5.0 mph 12.0 mph 89% 0.00 in 186.00 W/m2
09:29 44.8 °F 41.8 °F 30.04 in South 7.0 mph 10.0 mph 89% 0.00 in 241.00 W/m2
09:34 44.8 °F 41.8 °F 30.04 in South 9.0 mph 12.0 mph 89% 0.00 in 218.00 W/m2
09:39 44.8 °F 41.8 °F 30.04 in SSE 4.0 mph 12.0 mph 89% 0.00 in 225.00 W/m2
09:44 44.7 °F 41.7 °F 30.05 in Calm   9.0 mph 89% 0.00 in 285.00 W/m2
09:49 44.7 °F 41.7 °F 30.04 in South 8.0 mph 8.0 mph 89% 0.00 in 267.00 W/m2
09:54 44.9 °F 41.9 °F 30.04 in Calm   6.0 mph 89% 0.00 in 209.00 W/m2
09:59 45.0 °F 42.0 °F 30.05 in Calm   7.0 mph 89% 0.00 in 225.00 W/m2
10:04 45.0 °F 42.0 °F 30.05 in Calm   12.0 mph 89% 0.00 in 290.00 W/m2
10:09 45.0 °F 42.0 °F 30.05 in SSE 8.0 mph 9.0 mph 89% 0.00 in 297.00 W/m2
10:14 45.1 °F 42.1 °F 30.05 in South 4.0 mph 7.0 mph 89% 0.00 in 244.00 W/m2
10:19 45.2 °F 42.2 °F 30.05 in Calm     89% 0.00 in 244.00 W/m2
10:24 45.3 °F 42.3 °F 30.05 in South 5.0 mph 5.0 mph 89% 0.00 in 169.00 W/m2
10:29 45.4 °F 42.3 °F 30.06 in Calm   6.0 mph 89% 0.00 in 185.00 W/m2
10:34 45.5 °F 42.5 °F 30.06 in Calm   4.0 mph 89% 0.00 in 134.00 W/m2
10:39 45.5 °F 42.5 °F 30.06 in South 5.0 mph 7.0 mph 89% 0.00 in 176.00 W/m2
10:41 45.6 °F 42.5 °F 30.06 in South 7.0 mph 9.0 mph 89% 0.00 in 251.00 W/m2
10:46 45.6 °F 42.5 °F 30.06 in SSW 6.0 mph 9.0 mph 89% 0.00 in 327.00 W/m2
10:51 45.5 °F 42.7 °F 30.07 in Calm   7.0 mph 90% 0.00 in 183.00 W/m2
10:56 45.5 °F 42.7 °F 30.07 in South 6.0 mph 9.0 mph 90% 0.00 in 350.00 W/m2
11:01 45.6 °F 42.8 °F 30.07 in South 8.0 mph 8.0 mph 90% 0.00 in 251.00 W/m2
11:06 45.5 °F 42.7 °F 30.07 in South 6.0 mph 10.0 mph 90% 0.00 in 155.00 W/m2
11:11 45.6 °F 42.8 °F 30.07 in Calm   8.0 mph 90% 0.00 in 236.00 W/m2
11:16 45.6 °F 42.8 °F 30.07 in Calm   8.0 mph 90% 0.00 in 269.00 W/m2
11:21 45.7 °F 42.9 °F 30.07 in South 9.0 mph 9.0 mph 90% 0.00 in 288.00 W/m2
11:26 45.7 °F 42.9 °F 30.07 in Calm   10.0 mph 90% 0.00 in 489.00 W/m2
11:31 45.9 °F 42.8 °F 30.07 in SSW 3.0 mph 6.0 mph 89% 0.00 in 376.00 W/m2
11:36 46.0 °F 43.2 °F 30.07 in Calm     90% 0.00 in 251.00 W/m2
11:41 46.1 °F 43.3 °F 30.07 in Calm     90% 0.00 in 338.00 W/m2
11:46 46.2 °F 43.4 °F 30.06 in SSE 5.0 mph 5.0 mph 90% 0.00 in 557.00 W/m2
11:51 46.5 °F 43.4 °F 30.06 in South 7.0 mph 9.0 mph 89% 0.00 in 673.00 W/m2
11:56 46.7 °F 43.6 °F 30.06 in SSE 11.0 mph 14.0 mph 89% 0.00 in 677.00 W/m2
12:01 47.0 °F 44.2 °F 30.06 in South 11.0 mph 11.0 mph 90% 0.00 in 594.00 W/m2
12:06 47.1 °F 44.0 °F 30.06 in Calm     89% 0.00 in 510.00 W/m2
12:11 47.4 °F 44.3 °F 30.06 in SSE 1.0 mph 1.0 mph 89% 0.00 in 473.00 W/m2
12:16 47.6 °F 44.5 °F 30.06 in SSE 1.0 mph 2.0 mph 89% 0.00 in 422.00 W/m2
12:21 47.8 °F 44.4 °F 30.06 in SSE 1.0 mph 11.0 mph 88% 0.00 in 657.00 W/m2
12:26 48.2 °F 44.8 °F 30.06 in SSE 9.0 mph 12.0 mph 88% 0.00 in 283.00 W/m2
12:31 48.3 °F 44.6 °F 30.06 in South 1.0 mph 1.0 mph 87% 0.00 in 308.00 W/m2
12:36 48.5 °F 44.8 °F 30.06 in Calm   9.0 mph 87% 0.00 in 559.00 W/m2
12:41 48.7 °F 45.0 °F 30.06 in South 3.0 mph 10.0 mph 87% 0.00 in 522.00 W/m2
12:46 48.8 °F 45.1 °F 30.06 in Calm   7.0 mph 87% 0.00 in 302.00 W/m2
12:51 49.0 °F 45.3 °F 30.06 in Calm     87% 0.00 in 190.00 W/m2
12:56 49.0 °F 45.0 °F 30.06 in SSW 8.0 mph 8.0 mph 86% 0.00 in 148.00 W/m2
13:01 48.8 °F 44.8 °F 30.06 in Calm     86% 0.00 in 229.00 W/m2
13:06 48.6 °F 44.0 °F 30.06 in SW 7.0 mph 8.0 mph 84% 0.00 in 241.00 W/m2
13:12 48.7 °F 44.4 °F 30.06 in South 1.0 mph 7.0 mph 85% 0.00 in 448.00 W/m2
13:17 48.7 °F 44.4 °F 30.06 in Calm     85% 0.00 in 271.00 W/m2
13:22 48.8 °F 44.5 °F 30.06 in SSW 5.0 mph 9.0 mph 85% 0.00 in 206.00 W/m2
13:25 48.8 °F 44.2 °F 30.06 in South 8.0 mph 9.0 mph 84% 0.00 in 262.00 W/m2
13:27 48.8 °F 44.5 °F 30.06 in SSW 7.0 mph 11.0 mph 85% 0.00 in 250.00 W/m2
13:32 48.9 °F 44.6 °F 30.06 in Calm   10.0 mph 85% 0.00 in 197.00 W/m2
13:37 49.0 °F 44.7 °F 30.06 in Calm     85% 0.00 in 121.00 W/m2
13:42 49.0 °F 45.0 °F 30.06 in South 6.0 mph 10.0 mph 86% 0.00 in 114.00 W/m2
13:47 49.0 °F 44.7 °F 30.06 in Calm   8.0 mph 85% 0.00 in 153.00 W/m2
13:52 48.9 °F 44.6 °F 30.06 in Calm     85% 0.00 in 181.00 W/m2
13:57 48.9 °F 44.6 °F 30.06 in Calm     85% 0.00 in 227.00 W/m2
14:02 48.9 °F 44.6 °F 30.06 in Calm   9.0 mph 85% 0.00 in 216.00 W/m2
14:07 49.0 °F 45.0 °F 30.05 in Calm   11.0 mph 86% 0.00 in 318.00 W/m2
14:12 49.2 °F 45.2 °F 30.05 in SSW 8.0 mph 8.0 mph 86% 0.00 in 476.00 W/m2
14:17 49.2 °F 45.2 °F 30.05 in Calm   10.0 mph 86% 0.00 in 322.00 W/m2
14:22 49.3 °F 44.7 °F 30.06 in SSW 12.0 mph 12.0 mph 84% 0.00 in 244.00 W/m2
14:27 49.5 °F 44.9 °F 30.06 in SSW 10.0 mph 10.0 mph 84% 0.00 in 367.00 W/m2
14:32 49.7 °F 45.4 °F 30.06 in SW 8.0 mph 10.0 mph 85% 0.00 in 383.00 W/m2
14:37 49.8 °F 45.2 °F 30.06 in SSW 12.0 mph 12.0 mph 84% 0.00 in 311.00 W/m2
14:42 49.9 °F 45.3 °F 30.06 in South 8.0 mph 10.0 mph 84% 0.00 in 327.00 W/m2
14:47 50.0 °F 45.4 °F 30.06 in SSW 9.0 mph 10.0 mph 84% 0.00 in 230.00 W/m2
14:52 50.1 °F 45.5 °F 30.06 in South 7.0 mph 11.0 mph 84% 0.00 in 445.00 W/m2
14:57 50.2 °F 45.6 °F 30.06 in South 7.0 mph 8.0 mph 84% 0.00 in 295.00 W/m2
15:02 50.2 °F 45.6 °F 30.06 in Calm   8.0 mph 84% 0.00 in 243.00 W/m2
15:07 50.3 °F 45.7 °F 30.06 in South 5.0 mph 8.0 mph 84% 0.00 in 264.00 W/m2
15:12 50.3 °F 45.7 °F 30.06 in SSW 3.0 mph 7.0 mph 84% 0.00 in 218.00 W/m2
15:18 50.3 °F 45.7 °F 30.06 in SSW 3.0 mph 3.0 mph 84% 0.00 in 141.00 W/m2
15:23 50.3 °F 45.7 °F 30.06 in South 7.0 mph 9.0 mph 84% 0.00 in 181.00 W/m2
15:28 50.3 °F 45.7 °F 30.06 in South 6.0 mph 10.0 mph 84% 0.00 in 220.00 W/m2
15:33 50.3 °F 45.7 °F 30.06 in Calm   1.0 mph 84% 0.00 in 151.00 W/m2
15:43 50.2 °F 45.6 °F 30.06 in Calm     84% 0.00 in 109.00 W/m2
15:48 50.2 °F 45.6 °F 30.05 in Calm     84% 0.00 in 77.00 W/m2
15:53 50.2 °F 45.9 °F 30.05 in Calm     85% 0.00 in 102.00 W/m2
15:58 50.1 °F 45.8 °F 30.05 in Calm     85% 0.00 in 69.00 W/m2
16:03 50.0 °F 45.7 °F 30.05 in Calm     85% 0.00 in 174.00 W/m2
16:05 50.0 °F 45.7 °F 30.05 in Calm     85% 0.00 in 206.00 W/m2
16:15 50.0 °F 46.0 °F 30.05 in Calm     86% 0.00 in 220.00 W/m2
16:20 50.1 °F 46.1 °F 30.05 in South 4.0 mph 11.0 mph 86% 0.00 in 190.00 W/m2
16:25 50.2 °F 46.2 °F 30.05 in SSW 8.0 mph 13.0 mph 86% 0.00 in 178.00 W/m2
16:30 50.3 °F 46.3 °F 30.05 in SSW 1.0 mph 8.0 mph 86% 0.00 in 265.00 W/m2
16:35 50.4 °F 46.4 °F 30.05 in SSW 6.0 mph 9.0 mph 86% 0.00 in 287.00 W/m2
16:40 50.4 °F 46.1 °F 30.05 in SSW 7.0 mph 9.0 mph 85% 0.00 in 171.00 W/m2
16:45 50.4 °F 46.1 °F 30.05 in SW 8.0 mph 10.0 mph 85% 0.00 in 76.00 W/m2
16:50 50.5 °F 46.2 °F 30.05 in SSW 6.0 mph 10.0 mph 85% 0.00 in 46.00 W/m2
16:55 50.4 °F 46.1 °F 30.05 in South 12.0 mph 14.0 mph 85% 0.00 in 79.00 W/m2
17:00 50.4 °F 46.1 °F 30.05 in South 10.0 mph 12.0 mph 85% 0.00 in 163.00 W/m2
17:05 50.4 °F 46.4 °F 30.05 in SSW 4.0 mph 12.0 mph 86% 0.00 in 193.00 W/m2
17:10 50.4 °F 46.4 °F 30.05 in SW 1.0 mph 13.0 mph 86% 0.00 in 70.00 W/m2
17:15 50.4 °F 46.4 °F 30.05 in Calm   12.0 mph 86% 0.00 in 128.00 W/m2
17:20 50.4 °F 46.4 °F 30.04 in Calm   10.0 mph 86% 0.00 in 91.00 W/m2
17:25 50.4 °F 46.4 °F 30.04 in SSW 7.0 mph 14.0 mph 86% 0.00 in 151.00 W/m2
17:30 50.3 °F 46.3 °F 30.04 in SSW 4.0 mph 13.0 mph 86% 0.00 in 209.00 W/m2
17:35 50.4 °F 46.4 °F 30.03 in SSW 11.0 mph 14.0 mph 86% 0.00 in 181.00 W/m2
17:40 50.4 °F 46.4 °F 30.03 in South 3.0 mph 14.0 mph 86% 0.00 in 98.00 W/m2
17:45 50.4 °F 46.4 °F 30.03 in South 11.0 mph 11.0 mph 86% 0.00 in 95.00 W/m2
17:50 50.4 °F 46.4 °F 30.03 in Calm   14.0 mph 86% 0.00 in 86.00 W/m2
17:55 50.4 °F 46.4 °F 30.03 in SSE 12.0 mph 14.0 mph 86% 0.00 in 37.00 W/m2
18:00 50.3 °F 46.3 °F 30.03 in Calm   16.0 mph 86% 0.00 in 37.00 W/m2
18:05 50.3 °F 46.6 °F 30.03 in Calm   13.0 mph 87% 0.00 in 47.00 W/m2
18:10 50.2 °F 46.2 °F 30.03 in South 9.0 mph 10.0 mph 86% 0.00 in 37.00 W/m2
18:15 50.1 °F 46.4 °F 30.03 in Calm   8.0 mph 87% 0.00 in 21.00 W/m2
18:20 50.0 °F 46.3 °F 30.03 in South 7.0 mph 14.0 mph 87% 0.00 in 49.00 W/m2
18:25 50.0 °F 46.3 °F 30.03 in South 7.0 mph 12.0 mph 87% 0.00 in 21.00 W/m2
18:30 49.9 °F 46.2 °F 30.03 in SSE 5.0 mph 15.0 mph 87% 0.00 in 35.00 W/m2
18:35 49.8 °F 46.1 °F 30.03 in South 5.0 mph 14.0 mph 87% 0.00 in 33.00 W/m2
18:40 49.8 °F 46.1 °F 30.03 in South 8.0 mph 10.0 mph 87% 0.00 in 33.00 W/m2
18:45 49.7 °F 46.0 °F 30.03 in South 10.0 mph 12.0 mph 87% 0.00 in 19.00 W/m2
18:50 49.6 °F 46.2 °F 30.04 in South 5.0 mph 14.0 mph 88% 0.00 in 21.00 W/m2
18:55 49.5 °F 46.1 °F 30.04 in South 3.0 mph 13.0 mph 88% 0.00 in 25.00 W/m2
19:00 49.5 °F 46.1 °F 30.04 in South 7.0 mph 13.0 mph 88% 0.00 in 14.00 W/m2
19:05 49.4 °F 46.0 °F 30.04 in South 9.0 mph 15.0 mph 88% 0.00 in 21.00 W/m2
19:10 49.4 °F 46.0 °F 30.04 in SSW 7.0 mph 12.0 mph 88% 0.00 in 18.00 W/m2
19:20 49.3 °F 45.9 °F 30.04 in South 4.0 mph 11.0 mph 88% 0.00 in 11.00 W/m2
19:25 49.2 °F 45.8 °F 30.04 in South 8.0 mph 11.0 mph 88% 0.00 in 7.00 W/m2
19:30 49.2 °F 46.1 °F 30.04 in SSE 1.0 mph 12.0 mph 89% 0.00 in 5.00 W/m2
19:35 49.1 °F 46.0 °F 30.04 in SSE 9.0 mph 11.0 mph 89% 0.00 in 0.00 W/m2
19:41 49.1 °F 46.0 °F 30.04 in South 6.0 mph 14.0 mph 89% 0.00 in 0.00 W/m2
19:46 49.1 °F 46.0 °F 30.03 in South 8.0 mph 12.0 mph 89% 0.00 in 0.00 W/m2
19:51 49.1 °F 46.0 °F 30.03 in South 11.0 mph 15.0 mph 89% 0.00 in 0.00 W/m2
19:56 49.0 °F 45.9 °F 30.04 in South 8.0 mph 14.0 mph 89% 0.00 in 0.00 W/m2
20:06 49.0 °F 45.9 °F 30.03 in South 6.0 mph 16.0 mph 89% 0.25 in 0.00 W/m2
20:11 48.9 °F 45.8 °F 30.03 in South 4.0 mph 19.0 mph 89% 0.17 in 0.00 W/m2
20:16 48.9 °F 45.8 °F 30.03 in SSW 10.0 mph 17.0 mph 89% 0.07 in 0.00 W/m2
20:21 48.8 °F 45.7 °F 30.04 in South 6.0 mph 14.0 mph 89% 0.05 in 0.00 W/m2
20:26 48.8 °F 45.7 °F 30.04 in South 4.0 mph 13.0 mph 89% 0.00 in 0.00 W/m2
20:31 48.8 °F 45.7 °F 30.04 in SSW 10.0 mph 11.0 mph 89% 0.00 in 0.00 W/m2
20:36 48.7 °F 45.6 °F 30.05 in SSW 7.0 mph 7.0 mph 89% 0.00 in 0.00 W/m2
20:41 48.7 °F 45.6 °F 30.04 in SSW 6.0 mph 8.0 mph 89% 0.00 in 0.00 W/m2
20:46 48.7 °F 45.6 °F 30.04 in SSW 4.0 mph 6.0 mph 89% 0.00 in 0.00 W/m2
20:51 48.6 °F 45.5 °F 30.04 in SSW 13.0 mph 13.0 mph 89% 0.00 in 0.00 W/m2
20:56 48.5 °F 45.4 °F 30.04 in SSW 4.0 mph 6.0 mph 89% 0.00 in 0.00 W/m2
21:01 48.5 °F 45.4 °F 30.04 in SSW 2.0 mph 3.0 mph 89% 0.00 in 0.00 W/m2
21:06 48.4 °F 45.3 °F 30.04 in SW 11.0 mph 11.0 mph 89% 0.00 in 0.00 W/m2
21:11 48.3 °F 45.2 °F 30.04 in Calm     89% 0.00 in 0.00 W/m2
21:16 48.3 °F 45.2 °F 30.04 in South 5.0 mph 6.0 mph 89% 0.00 in 0.00 W/m2
21:21 48.3 °F 45.2 °F 30.03 in Calm     89% 0.00 in 0.00 W/m2
21:26 48.2 °F 45.1 °F 30.04 in Calm     89% 0.00 in 0.00 W/m2
21:36 48.1 °F 45.0 °F 30.05 in Calm     89% 0.00 in 0.00 W/m2
21:41 48.1 °F 45.0 °F 30.05 in Calm     89% 0.00 in 0.00 W/m2
21:46 48.1 °F 45.0 °F 30.04 in Calm     89% 0.00 in 0.00 W/m2
21:51 48.1 °F 45.0 °F 30.05 in SSW 6.0 mph 8.0 mph 89% 0.00 in 0.00 W/m2
21:56 48.0 °F 44.9 °F 30.05 in Calm   1.0 mph 89% 0.00 in 0.00 W/m2
22:01 48.0 °F 44.9 °F 30.06 in Calm     89% 0.00 in 0.00 W/m2
22:06 47.9 °F 44.8 °F 30.06 in Calm     89% 0.00 in 0.00 W/m2
22:11 47.9 °F 44.8 °F 30.06 in Calm     89% 0.00 in 0.00 W/m2
22:16 47.9 °F 44.8 °F 30.06 in Calm     89% 0.00 in 0.00 W/m2
22:21 47.9 °F 44.8 °F 30.06 in Calm     89% 0.00 in 0.00 W/m2
22:26 47.9 °F 44.8 °F 30.06 in Calm     89% 0.00 in 0.00 W/m2
22:31 47.9 °F 44.8 °F 30.06 in Calm     89% 0.00 in 0.00 W/m2
22:36 47.9 °F 44.8 °F 30.06 in Calm     89% 0.00 in 0.00 W/m2
22:41 47.9 °F 44.8 °F 30.06 in Calm     89% 0.00 in 0.00 W/m2
22:46 47.9 °F 44.8 °F 30.06 in Calm     89% 0.00 in 0.00 W/m2
22:51 47.9 °F 44.8 °F 30.06 in Calm     89% 0.00 in 0.00 W/m2
22:56 47.8 °F 44.7 °F 30.06 in Calm     89% 0.00 in 0.00 W/m2
23:01 47.8 °F 44.7 °F 30.06 in Calm     89% 0.00 in 0.00 W/m2
23:03 47.8 °F 44.7 °F 30.05 in Calm     89% 0.00 in 0.00 W/m2
23:08 47.8 °F 44.7 °F 30.06 in Calm     89% 0.00 in 0.00 W/m2
23:13 47.8 °F 44.7 °F 30.06 in Calm     89% 0.00 in 0.00 W/m2
23:18 47.8 °F 44.7 °F 30.06 in Calm     89% 0.00 in 0.00 W/m2
23:23 47.8 °F 44.7 °F 30.06 in Calm     89% 0.00 in 0.00 W/m2
23:28 47.7 °F 44.6 °F 30.07 in Calm     89% 0.00 in 0.00 W/m2
23:33 47.6 °F 44.5 °F 30.07 in Calm     89% 0.00 in 0.00 W/m2
23:38 47.5 °F 44.4 °F 30.07 in Calm     89% 0.00 in 0.00 W/m2
23:43 47.5 °F 44.4 °F 30.07 in Calm     89% 0.00 in 0.00 W/m2
23:48 47.5 °F 44.4 °F 30.07 in Calm     89% 0.00 in 0.00 W/m2
23:53 47.5 °F 44.4 °F 30.07 in Calm     89% 0.00 in 0.00 W/m2
23:58 47.5 °F 44.4 °F 30.06 in Calm     89% 0.00 in 0.00 W/m2
Foresthill Weather
 WU-history PHP script courtesy of   Juneau County Weather.
powered by Cumulus v1.9.3 (1059)
Ambient Weather VWS v14.00
Top Contact Website Map Copyright © 2007 - 2018 Foresthillweather.com Never base important decisions on this or any weather information obtained from the Internet